Aviation Digital Data Service (ADDS)

Output produced by METARs form (1559 UTC 16 April 2014)
found at http://aviationweather.gov/adds/metars/
 
KRIC 161139Z 1612/1712 35013G20KT P6SM SKC 
     FM161700 01010G18KT P6SM SKC 
     FM162100 03008KT P6SM SKC 
     FM170000 06005KT P6SM SKC